Time;durP1;ratioP1;P1;durP2;ratioP2;P2;SDS_P1;SDS_P2;PMS_P1;PMS_P2;Temp;Humidity;BMP_temperature;BMP_pressure;BME280_temperature;BME280_humidity;BME280_pressure;Samples;Min_cycle;Max_cycle;Signal;HPM_P1;HPM_P2
2023/04/02 00:01:00;;;;;;;10.48;5.60;;;;;;;;;;5068621;28;20037;-83
2023/04/02 00:03:52;;;;;;;10.15;5.55;;;;;;;;;;5074375;28;20036;-83
2023/04/02 00:06:33;;;;;;;16.17;5.68;;;;;;;;;;5068570;28;20052;-82
2023/04/02 00:09:23;;;;;;;11.77;5.60;;;;;;;;;;5074072;28;20045;-83
2023/04/02 00:11:53;;;;;;;14.88;5.43;;;;;;;;;;5053221;28;20041;-83
2023/04/02 00:14:26;;;;;;;11.98;5.80;;;;;;;;;;5065982;28;20045;-83
2023/04/02 00:16:53;;;;;;;13.68;5.40;;;;;;;;;;5073478;28;20040;-82
2023/04/02 00:19:23;;;;;;;10.18;5.05;;;;;;;;;;5075510;28;20032;-83
2023/04/02 00:21:50;;;;;;;9.30;5.28;;;;;;;;;;5073778;28;20505;-82
2023/04/02 00:24:19;;;;;;;8.70;5.22;;;;;;;;;;5057317;28;20056;-83
2023/04/02 00:26:49;;;;;;;10.38;5.00;;;;;;;;;;5043415;28;20049;-83
2023/04/02 00:29:16;;;;;;;10.80;5.57;;;;;;;;;;5056946;28;20044;-82
2023/04/02 00:31:44;;;;;;;12.18;5.65;;;;;;;;;;5059563;28;20079;-83
2023/04/02 00:34:33;;;;;;;11.85;5.47;;;;;;;;;;5074748;28;20102;-83
2023/04/02 00:37:00;;;;;;;8.93;5.40;;;;;;;;;;5051225;28;20044;-82
2023/04/02 00:39:28;;;;;;;12.55;5.75;;;;;;;;;;5066887;28;20037;-83
2023/04/02 00:42:03;;;;;;;8.75;5.15;;;;;;;;;;5067073;28;20044;-83
2023/04/02 00:44:31;;;;;;;8.52;4.63;;;;;;;;;;5061218;28;20489;-82
2023/04/02 00:46:59;;;;;;;9.75;5.30;;;;;;;;;;5064019;28;20054;-83
2023/04/02 00:49:36;;;;;;;8.45;5.43;;;;;;;;;;5069930;28;20044;-82
2023/04/02 00:52:04;;;;;;;10.35;5.72;;;;;;;;;;5061742;28;20493;-82
2023/04/02 00:54:32;;;;;;;13.70;6.18;;;;;;;;;;5074185;28;20043;-82
2023/04/02 00:56:58;;;;;;;9.02;5.82;;;;;;;;;;5073506;28;20045;-83
2023/04/02 00:59:47;;;;;;;9.13;5.82;;;;;;;;;;5084068;28;20056;-82
2023/04/02 01:02:16;;;;;;;11.50;5.57;;;;;;;;;;5059904;28;20043;-82
2023/04/02 01:04:42;;;;;;;9.65;5.70;;;;;;;;;;5072980;28;20040;-83
2023/04/02 01:07:09;;;;;;;14.48;6.00;;;;;;;;;;5074279;28;20045;-83
2023/04/02 01:09:51;;;;;;;10.02;6.20;;;;;;;;;;5058880;28;20397;-82
2023/04/02 01:12:34;;;;;;;8.70;5.30;;;;;;;;;;5063612;28;20355;-83
2023/04/02 01:15:06;;;;;;;8.32;4.95;;;;;;;;;;5054046;28;20398;-82
2023/04/02 01:17:36;;;;;;;8.00;5.07;;;;;;;;;;5052885;28;20041;-82
2023/04/02 01:20:08;;;;;;;8.98;5.20;;;;;;;;;;5053784;28;20041;-83
2023/04/02 01:22:34;;;;;;;10.85;5.68;;;;;;;;;;5052782;28;20065;-83
2023/04/02 01:25:03;;;;;;;7.13;4.95;;;;;;;;;;5053838;28;20045;-83
2023/04/02 01:27:51;;;;;;;11.90;5.63;;;;;;;;;;5052694;28;20048;-83
2023/04/02 01:30:18;;;;;;;9.40;5.60;;;;;;;;;;5042262;28;20452;-83
2023/04/02 01:32:44;;;;;;;11.77;6.10;;;;;;;;;;5068816;28;20074;-82
2023/04/02 01:35:11;;;;;;;10.55;5.30;;;;;;;;;;5061405;28;20699;-83
2023/04/02 01:37:43;;;;;;;11.27;5.45;;;;;;;;;;5052710;28;20162;-83
2023/04/02 01:40:13;;;;;;;11.85;5.55;;;;;;;;;;5052512;28;20516;-82
2023/04/02 01:42:42;;;;;;;13.27;5.70;;;;;;;;;;5052492;28;20147;-82
2023/04/02 01:45:11;;;;;;;8.30;4.88;;;;;;;;;;5052217;28;20052;-82
2023/04/02 01:47:37;;;;;;;11.02;5.55;;;;;;;;;;5052466;28;20040;-82
2023/04/02 01:50:24;;;;;;;9.23;5.35;;;;;;;;;;5052418;28;20048;-82
2023/04/02 01:52:51;;;;;;;8.98;5.10;;;;;;;;;;5082349;28;20055;-82
2023/04/02 01:55:20;;;;;;;8.00;5.20;;;;;;;;;;5053521;28;20037;-82
2023/04/02 01:57:50;;;;;;;11.55;4.70;;;;;;;;;;5051537;28;20063;-83
2023/04/02 02:00:17;;;;;;;11.63;5.68;;;;;;;;;;5052251;28;20056;-82
2023/04/02 02:02:46;;;;;;;11.38;5.25;;;;;;;;;;5050956;28;20056;-82
2023/04/02 02:05:13;;;;;;;10.02;5.15;;;;;;;;;;5052248;28;20048;-82
2023/04/02 02:07:40;;;;;;;9.63;4.85;;;;;;;;;;5053553;28;20112;-82
2023/04/02 02:10:07;;;;;;;9.05;4.93;;;;;;;;;;5053428;28;20045;-83
2023/04/02 02:12:33;;;;;;;11.68;4.05;;;;;;;;;;5052326;28;20033;-82
2023/04/02 02:14:59;;;;;;;11.27;4.50;;;;;;;;;;5052894;28;20047;-82
2023/04/02 02:17:33;;;;;;;8.63;4.07;;;;;;;;;;5051809;28;20099;-82
2023/04/02 02:20:00;;;;;;;8.32;4.18;;;;;;;;;;5052009;28;20128;-82
2023/04/02 02:22:33;;;;;;;12.90;4.40;;;;;;;;;;5052661;28;20478;-82
2023/04/02 02:25:01;;;;;;;9.40;4.35;;;;;;;;;;5053269;28;20505;-82
2023/04/02 02:27:27;;;;;;;7.85;3.90;;;;;;;;;;5051249;28;20126;-82
2023/04/02 02:29:55;;;;;;;6.85;3.60;;;;;;;;;;5052612;28;20055;-82
2023/04/02 02:32:23;;;;;;;7.53;3.40;;;;;;;;;;5043364;28;20087;-82
2023/04/02 02:34:54;;;;;;;8.10;3.60;;;;;;;;;;5052903;28;20037;-82
2023/04/02 02:37:23;;;;;;;9.52;4.28;;;;;;;;;;5051154;28;20044;-82
2023/04/02 02:39:53;;;;;;;6.57;3.70;;;;;;;;;;5035187;28;20382;-82
2023/04/02 02:42:26;;;;;;;8.30;3.72;;;;;;;;;;5051142;28;20055;-82
2023/04/02 02:44:53;;;;;;;7.50;3.55;;;;;;;;;;5051205;28;20048;-83
2023/04/02 02:47:23;;;;;;;8.02;3.78;;;;;;;;;;5050877;28;20126;-82
2023/04/02 02:49:51;;;;;;;7.03;3.72;;;;;;;;;;5052344;28;20044;-82
2023/04/02 02:52:28;;;;;;;8.90;3.80;;;;;;;;;;5052188;28;20032;-82
2023/04/02 02:54:57;;;;;;;10.43;3.75;;;;;;;;;;5052459;28;20037;-82
2023/04/02 02:57:32;;;;;;;7.05;3.33;;;;;;;;;;5051909;28;20095;-81
2023/04/02 02:59:59;;;;;;;9.87;3.33;;;;;;;;;;5052612;28;20044;-82
2023/04/02 03:02:26;;;;;;;8.55;3.65;;;;;;;;;;5044266;28;20524;-82
2023/04/02 03:04:54;;;;;;;9.45;3.42;;;;;;;;;;5064947;28;20037;-82
2023/04/02 03:07:24;;;;;;;6.03;3.38;;;;;;;;;;5070074;28;20127;-82
2023/04/02 03:10:09;;;;;;;9.38;3.40;;;;;;;;;;5071416;28;20037;-82
2023/04/02 03:12:44;;;;;;;8.35;3.35;;;;;;;;;;5070490;28;20044;-82
2023/04/02 03:15:14;;;;;;;11.98;3.22;;;;;;;;;;5071073;28;20125;-82
2023/04/02 03:17:43;;;;;;;7.45;2.65;;;;;;;;;;5071118;28;20032;-82
2023/04/02 03:20:25;;;;;;;7.88;3.08;;;;;;;;;;5060710;28;20062;-82
2023/04/02 03:23:02;;;;;;;8.63;2.72;;;;;;;;;;5034007;28;20102;-82
2023/04/02 03:25:32;;;;;;;5.90;2.90;;;;;;;;;;5033825;28;20063;-82
2023/04/02 03:28:04;;;;;;;6.40;3.00;;;;;;;;;;5052201;28;20041;-82
2023/04/02 03:30:34;;;;;;;8.25;2.80;;;;;;;;;;5050445;28;20492;-82
2023/04/02 03:33:03;;;;;;;7.97;2.60;;;;;;;;;;5050655;28;20041;-82
2023/04/02 03:35:34;;;;;;;6.60;2.83;;;;;;;;;;5050464;28;20086;-82
2023/04/02 03:38:02;;;;;;;7.43;2.80;;;;;;;;;;5050574;28;20041;-82
2023/04/02 03:40:31;;;;;;;7.55;2.50;;;;;;;;;;5051626;28;20064;-82
2023/04/02 03:43:03;;;;;;;6.80;2.30;;;;;;;;;;5051894;28;20078;-82
2023/04/02 03:45:35;;;;;;;10.05;2.53;;;;;;;;;;5050048;28;20098;-82
2023/04/02 03:48:25;;;;;;;7.65;2.60;;;;;;;;;;5050548;28;20102;-82
2023/04/02 03:50:54;;;;;;;8.88;2.50;;;;;;;;;;5047585;28;20088;-82
2023/04/02 03:53:23;;;;;;;7.45;2.50;;;;;;;;;;5051449;28;20037;-82
2023/04/02 03:55:49;;;;;;;7.97;2.92;;;;;;;;;;5051540;28;20041;-82
2023/04/02 03:58:29;;;;;;;8.55;2.45;;;;;;;;;;5051744;28;20037;-82
2023/04/02 04:00:55;;;;;;;6.07;2.55;;;;;;;;;;5048510;28;20398;-82
2023/04/02 04:03:24;;;;;;;7.13;2.67;;;;;;;;;;5047628;28;20052;-82
2023/04/02 04:05:59;;;;;;;5.95;2.20;;;;;;;;;;5063934;28;20633;-82
2023/04/02 04:08:31;;;;;;;5.40;2.20;;;;;;;;;;5045593;28;20044;-82
2023/04/02 04:11:01;;;;;;;5.10;2.63;;;;;;;;;;5065877;28;20040;-82
2023/04/02 04:13:34;;;;;;;8.13;2.40;;;;;;;;;;5049854;28;20095;-82
2023/04/02 04:16:04;;;;;;;10.13;2.80;;;;;;;;;;5050740;28;20098;-82
2023/04/02 04:18:40;;;;;;;6.55;2.42;;;;;;;;;;5051144;28;20059;-82
2023/04/02 04:21:14;;;;;;;8.32;2.50;;;;;;;;;;5055619;28;20112;-82
2023/04/02 04:23:48;;;;;;;6.45;3.25;;;;;;;;;;5053279;28;20045;-83
2023/04/02 04:26:19;;;;;;;9.10;2.50;;;;;;;;;;5053940;28;20049;-82
2023/04/02 04:28:57;;;;;;;8.63;2.42;;;;;;;;;;5054521;28;20049;-82
2023/04/02 04:31:45;;;;;;;7.75;2.65;;;;;;;;;;5056145;28;20528;-82
2023/04/02 04:34:35;;;;;;;6.90;2.50;;;;;;;;;;5053537;28;20142;-82
2023/04/02 04:37:06;;;;;;;6.57;2.72;;;;;;;;;;5053591;28;20049;-82
2023/04/02 04:39:49;;;;;;;8.38;2.47;;;;;;;;;;5039876;28;20045;-83
2023/04/02 04:42:20;;;;;;;7.45;2.40;;;;;;;;;;5053523;28;20079;-82
2023/04/02 04:45:07;;;;;;;7.05;2.45;;;;;;;;;;5053118;28;20049;-82
2023/04/02 04:47:35;;;;;;;6.95;2.17;;;;;;;;;;5052964;28;20478;-82
2023/04/02 04:50:06;;;;;;;8.50;2.50;;;;;;;;;;5054663;28;20070;-82
2023/04/02 04:52:34;;;;;;;9.15;2.22;;;;;;;;;;5053181;28;20048;-82
2023/04/02 04:55:00;;;;;;;6.95;2.28;;;;;;;;;;5053473;28;20083;-82
2023/04/02 04:57:32;;;;;;;6.68;1.73;;;;;;;;;;5053612;28;20485;-82
2023/04/02 05:00:05;;;;;;;6.88;1.90;;;;;;;;;;5053297;28;20056;-82
2023/04/02 05:02:44;;;;;;;6.22;1.73;;;;;;;;;;5052027;28;20386;-81
2023/04/02 05:05:24;;;;;;;5.43;1.73;;;;;;;;;;5053441;28;20490;-82
2023/04/02 05:07:52;;;;;;;5.20;1.60;;;;;;;;;;5052787;28;20103;-82
2023/04/02 05:10:37;;;;;;;4.10;1.63;;;;;;;;;;5053102;28;20037;-82
2023/04/02 05:13:06;;;;;;;7.32;1.90;;;;;;;;;;5053030;28;20124;-82
2023/04/02 05:15:40;;;;;;;6.82;1.80;;;;;;;;;;5053965;28;20064;-82
2023/04/02 05:18:06;;;;;;;6.75;1.60;;;;;;;;;;5053181;28;20464;-82
2023/04/02 05:20:35;;;;;;;6.32;1.65;;;;;;;;;;5052548;28;20075;-82
2023/04/02 05:23:20;;;;;;;2.72;0.95;;;;;;;;;;5054244;28;20398;-82
2023/04/02 05:25:54;;;;;;;7.40;1.95;;;;;;;;;;5052256;28;20060;-82
2023/04/02 05:28:25;;;;;;;6.65;1.48;;;;;;;;;;5052696;28;20045;-82
2023/04/02 05:31:02;;;;;;;6.13;1.45;;;;;;;;;;5051940;28;20055;-82
2023/04/02 05:33:29;;;;;;;6.22;1.42;;;;;;;;;;5052704;28;20049;-82
2023/04/02 05:35:58;;;;;;;5.05;1.73;;;;;;;;;;5053292;28;20048;-82
2023/04/02 05:38:26;;;;;;;6.13;1.60;;;;;;;;;;5036130;28;20045;-82
2023/04/02 05:41:03;;;;;;;7.35;1.90;;;;;;;;;;5051982;28;20473;-82
2023/04/02 05:43:30;;;;;;;4.55;1.17;;;;;;;;;;5052620;28;20069;-83
2023/04/02 05:45:58;;;;;;;6.13;2.08;;;;;;;;;;5051982;28;20088;-82
2023/04/02 05:48:42;;;;;;;8.85;1.70;;;;;;;;;;5052663;28;20041;-82
2023/04/02 05:51:11;;;;;;;7.30;1.73;;;;;;;;;;5052725;28;20040;-82
2023/04/02 05:53:40;;;;;;;4.50;1.17;;;;;;;;;;5051790;28;20041;-82
2023/04/02 05:56:06;;;;;;;4.57;1.50;;;;;;;;;;5021480;28;20037;-82
2023/04/02 05:58:54;;;;;;;7.68;1.40;;;;;;;;;;5053309;28;20048;-82
2023/04/02 06:01:38;;;;;;;4.45;1.55;;;;;;;;;;5035661;28;20041;-82
2023/04/02 06:04:23;;;;;;;5.75;1.45;;;;;;;;;;5055020;28;20041;-82
2023/04/02 06:07:03;;;;;;;4.80;1.40;;;;;;;;;;5045846;28;20043;-83
2023/04/02 06:09:39;;;;;;;5.00;1.60;;;;;;;;;;5052204;28;20444;-83
2023/04/02 06:12:17;;;;;;;5.60;1.45;;;;;;;;;;5052003;28;20043;-83
2023/04/02 06:14:43;;;;;;;6.90;1.52;;;;;;;;;;5030109;28;20049;-82
2023/04/02 06:17:17;;;;;;;5.70;1.30;;;;;;;;;;5076130;28;20045;-84
2023/04/02 06:19:44;;;;;;;4.05;1.25;;;;;;;;;;5051204;28;20072;-83
2023/04/02 06:22:18;;;;;;;4.43;1.17;;;;;;;;;;5051715;28;20078;-83
2023/04/02 06:24:45;;;;;;;6.18;1.52;;;;;;;;;;5034847;28;20055;-83
2023/04/02 06:27:14;;;;;;;3.95;1.50;;;;;;;;;;5034705;28;20431;-82
2023/04/02 06:29:43;;;;;;;4.93;1.33;;;;;;;;;;5051234;28;20039;-83
2023/04/02 06:32:12;;;;;;;3.40;1.02;;;;;;;;;;5051472;28;20087;-83
2023/04/02 06:34:39;;;;;;;5.72;1.30;;;;;;;;;;5051698;28;20553;-83
2023/04/02 06:37:18;;;;;;;6.75;1.20;;;;;;;;;;5051579;28;20041;-84
2023/04/02 06:39:44;;;;;;;4.63;1.25;;;;;;;;;;5052241;28;20037;-84
2023/04/02 06:42:11;;;;;;;3.25;0.90;;;;;;;;;;5051058;28;20041;-83
2023/04/02 06:44:38;;;;;;;4.70;1.27;;;;;;;;;;5051237;28;20060;-83
2023/04/02 06:47:06;;;;;;;5.90;1.55;;;;;;;;;;5050732;28;20046;-83
2023/04/02 06:49:36;;;;;;;7.22;2.38;;;;;;;;;;5052593;28;20033;-84
2023/04/02 06:52:04;;;;;;;4.75;1.25;;;;;;;;;;5052302;28;20051;-83
2023/04/02 06:54:30;;;;;;;7.10;1.10;;;;;;;;;;5051503;28;20045;-83
2023/04/02 06:56:56;;;;;;;4.22;1.20;;;;;;;;;;5050680;28;20069;-83
2023/04/02 06:59:22;;;;;;;3.47;1.08;;;;;;;;;;5034364;28;20044;-84
2023/04/02 07:01:49;;;;;;;4.47;1.50;;;;;;;;;;5068771;28;20044;-83
2023/04/02 07:04:15;;;;;;;3.28;1.10;;;;;;;;;;5034364;28;20052;-83
2023/04/02 07:06:41;;;;;;;4.10;1.15;;;;;;;;;;5050942;28;20095;-83
2023/04/02 07:09:07;;;;;;;4.55;1.25;;;;;;;;;;5051032;28;20033;-83
2023/04/02 07:11:34;;;;;;;5.88;1.10;;;;;;;;;;5050996;28;20037;-83
2023/04/02 07:14:00;;;;;;;4.80;1.10;;;;;;;;;;5050631;28;20041;-83
2023/04/02 07:16:29;;;;;;;3.35;1.10;;;;;;;;;;5051244;28;20040;-83
2023/04/02 07:18:57;;;;;;;5.53;1.08;;;;;;;;;;5050863;28;20522;-83
2023/04/02 07:21:24;;;;;;;5.45;1.20;;;;;;;;;;5051097;28;20430;-83
2023/04/02 07:23:50;;;;;;;6.05;1.20;;;;;;;;;;5050984;28;20057;-83
2023/04/02 07:26:21;;;;;;;4.60;1.42;;;;;;;;;;5050901;28;20057;-83
2023/04/02 07:28:47;;;;;;;6.05;1.10;;;;;;;;;;5050631;28;20494;-84
2023/04/02 07:31:16;;;;;;;3.63;1.00;;;;;;;;;;5052179;28;20071;-84
2023/04/02 07:33:42;;;;;;;3.30;1.05;;;;;;;;;;5050756;28;20072;-84
2023/04/02 07:36:12;;;;;;;5.95;1.23;;;;;;;;;;5050419;28;20076;-84
2023/04/02 07:38:38;;;;;;;4.78;0.95;;;;;;;;;;5051324;28;20041;-83
2023/04/02 07:41:05;;;;;;;3.75;0.95;;;;;;;;;;5051018;28;20513;-83
2023/04/02 07:43:31;;;;;;;6.55;1.20;;;;;;;;;;5052178;28;20470;-84
2023/04/02 07:45:58;;;;;;;2.50;1.02;;;;;;;;;;5050413;28;20504;-83
2023/04/02 07:48:25;;;;;;;4.18;1.20;;;;;;;;;;5051932;28;20512;-83
2023/04/02 07:50:51;;;;;;;6.43;1.10;;;;;;;;;;5050129;28;20037;-83
2023/04/02 07:53:31;;;;;;;4.05;1.10;;;;;;;;;;5050827;28;20041;-84
2023/04/02 07:55:58;;;;;;;3.25;0.93;;;;;;;;;;5052851;28;20029;-83
2023/04/02 07:58:24;;;;;;;4.25;1.08;;;;;;;;;;5054354;28;20127;-84
2023/04/02 08:00:50;;;;;;;5.63;1.38;;;;;;;;;;5037245;28;20052;-83
2023/04/02 08:03:16;;;;;;;4.32;1.20;;;;;;;;;;5067646;28;20519;-84
2023/04/02 08:05:43;;;;;;;4.90;1.10;;;;;;;;;;5093801;28;20074;-83
2023/04/02 08:08:09;;;;;;;5.30;1.20;;;;;;;;;;5075034;28;20052;-83
2023/04/02 08:10:35;;;;;;;3.88;1.17;;;;;;;;;;5074372;28;20120;-83
2023/04/02 08:13:01;;;;;;;3.78;0.90;;;;;;;;;;5073872;28;20044;-83
2023/04/02 08:15:27;;;;;;;3.83;0.93;;;;;;;;;;5075454;28;20047;-84
2023/04/02 08:17:53;;;;;;;4.53;1.17;;;;;;;;;;5074951;28;20439;-83
2023/04/02 08:20:21;;;;;;;2.83;1.00;;;;;;;;;;5057721;28;20397;-83
2023/04/02 08:22:47;;;;;;;4.65;1.13;;;;;;;;;;5074105;28;20451;-83
2023/04/02 08:25:14;;;;;;;4.07;1.40;;;;;;;;;;5073975;28;20520;-84
2023/04/02 08:27:40;;;;;;;5.30;1.52;;;;;;;;;;5056881;28;20182;-84
2023/04/02 08:30:07;;;;;;;4.50;1.30;;;;;;;;;;5073463;28;20040;-83
2023/04/02 08:32:33;;;;;;;3.35;1.10;;;;;;;;;;5074043;28;20511;-84
2023/04/02 08:34:59;;;;;;;4.80;1.50;;;;;;;;;;5074806;28;20547;-83
2023/04/02 08:37:25;;;;;;;3.30;1.00;;;;;;;;;;5072312;28;20094;-83
2023/04/02 08:39:51;;;;;;;4.05;0.95;;;;;;;;;;5042087;28;20041;-85
2023/04/02 08:42:22;;;;;;;8.75;1.45;;;;;;;;;;5052222;28;20044;-84
2023/04/02 08:45:07;;;;;;;3.17;1.10;;;;;;;;;;5053636;28;20078;-85
2023/04/02 08:47:39;;;;;;;3.17;0.90;;;;;;;;;;5051177;28;20059;-83
2023/04/02 08:50:25;;;;;;;4.13;1.10;;;;;;;;;;5048033;28;20049;-83
2023/04/02 08:52:51;;;;;;;;;;;;;;;;;;5054804;28;20128;-84
2023/04/02 08:55:32;;;;;;;4.47;1.35;;;;;;;;;;5053111;28;19960;-84
2023/04/02 08:58:06;;;;;;;7.18;1.20;;;;;;;;;;5053278;28;20532;-84
2023/04/02 09:00:38;;;;;;;4.53;1.30;;;;;;;;;;5053068;28;20040;-83
2023/04/02 09:03:20;;;;;;;3.17;1.10;;;;;;;;;;5064518;28;20095;-85
2023/04/02 09:05:47;;;;;;;3.90;1.10;;;;;;;;;;5042470;28;20036;-84
2023/04/02 09:08:18;;;;;;;5.03;1.45;;;;;;;;;;5072831;28;20079;-84
2023/04/02 09:11:05;;;;;;;3.97;1.10;;;;;;;;;;5073400;28;20056;-84
2023/04/02 09:13:31;;;;;;;;;;;;;;;;;;5074795;28;20028;-83
2023/04/02 09:16:03;;;;;;;4.07;1.20;;;;;;;;;;5056640;28;19916;-84
2023/04/02 09:18:30;;;;;;;3.35;1.15;;;;;;;;;;5073144;28;20052;-84
2023/04/02 09:20:56;;;;;;;3.25;1.00;;;;;;;;;;5072868;28;20062;-84
2023/04/02 09:23:24;;;;;;;4.82;1.20;;;;;;;;;;5074052;28;20101;-84
2023/04/02 09:25:51;;;;;;;4.60;1.40;;;;;;;;;;5073168;28;20496;-84
2023/04/02 09:28:23;;;;;;;4.68;1.23;;;;;;;;;;5072683;28;20404;-84
2023/04/02 09:30:52;;;;;;;4.82;1.35;;;;;;;;;;5104924;28;20060;-84
2023/04/02 09:33:18;;;;;;;4.88;1.30;;;;;;;;;;5052431;28;20068;-85
2023/04/02 09:35:50;;;;;;;3.17;1.00;;;;;;;;;;5052789;28;20037;-84
2023/04/02 09:38:16;;;;;;;3.33;1.20;;;;;;;;;;5053148;28;20498;-84
2023/04/02 09:40:48;;;;;;;4.30;1.10;;;;;;;;;;5036554;28;20052;-84
2023/04/02 09:43:16;;;;;;;5.55;1.40;;;;;;;;;;5044452;28;20046;-84
2023/04/02 09:45:43;;;;;;;4.97;1.33;;;;;;;;;;5060245;28;20076;-84
2023/04/02 09:48:24;;;;;;;3.47;1.38;;;;;;;;;;5071834;28;20047;-84
2023/04/02 09:50:50;;;;;;;4.28;1.30;;;;;;;;;;5073781;28;20067;-84
2023/04/02 09:53:25;;;;;;;4.13;1.50;;;;;;;;;;5068827;28;20489;-85
2023/04/02 09:55:51;;;;;;;;;;;;;;;;;;5065182;28;20040;-84
2023/04/02 09:58:17;;;;;;;4.10;1.27;;;;;;;;;;5072319;28;20389;-83
2023/04/02 10:00:51;;;;;;;6.30;1.20;;;;;;;;;;5062502;28;20056;-84
2023/04/02 10:03:20;;;;;;;4.82;1.15;;;;;;;;;;5065690;28;20106;-84
2023/04/02 10:05:47;;;;;;;4.75;1.27;;;;;;;;;;5072749;28;20046;-83
2023/04/02 10:08:24;;;;;;;3.90;1.20;;;;;;;;;;5073764;28;20045;-84
2023/04/02 10:10:52;;;;;;;4.00;1.25;;;;;;;;;;5073444;28;20040;-84
2023/04/02 10:13:47;;;;;;;4.45;1.20;;;;;;;;;;5062837;28;20509;-84
2023/04/02 10:16:16;;;;;;;4.25;1.40;;;;;;;;;;5048409;28;20045;-84
2023/04/02 10:19:08;;;;;;;4.10;1.27;;;;;;;;;;5057413;28;20037;-84
2023/04/02 10:21:38;;;;;;;4.75;1.33;;;;;;;;;;5056803;28;20036;-84
2023/04/02 10:24:14;;;;;;;3.33;1.13;;;;;;;;;;5057712;28;20044;-84
2023/04/02 10:26:58;;;;;;;4.05;1.10;;;;;;;;;;5072017;28;20505;-83
2023/04/02 10:29:28;;;;;;;3.28;1.00;;;;;;;;;;5057025;28;20033;-84
2023/04/02 10:32:03;;;;;;;3.10;1.10;;;;;;;;;;5071529;28;20394;-84
2023/04/02 10:34:43;;;;;;;3.42;1.17;;;;;;;;;;5071323;28;20036;-84
2023/04/02 10:37:17;;;;;;;4.85;1.27;;;;;;;;;;5071405;28;20044;-84
2023/04/02 10:39:47;;;;;;;4.00;1.33;;;;;;;;;;5066465;28;20045;-84
2023/04/02 10:42:20;;;;;;;6.07;1.20;;;;;;;;;;5064257;28;20044;-84
2023/04/02 10:44:49;;;;;;;4.75;1.10;;;;;;;;;;5072667;28;20131;-84
2023/04/02 10:47:21;;;;;;;3.05;1.00;;;;;;;;;;5072519;28;20489;-84
2023/04/02 10:49:59;;;;;;;3.03;1.02;;;;;;;;;;5068601;28;20039;-82
2023/04/02 10:52:30;;;;;;;3.25;1.10;;;;;;;;;;5063002;28;20043;-82
2023/04/02 10:54:59;;;;;;;3.00;1.08;;;;;;;;;;5071238;28;20044;-82
2023/04/02 10:57:26;;;;;;;4.18;1.27;;;;;;;;;;5072896;28;20153;-82
2023/04/02 10:59:55;;;;;;;4.32;1.50;;;;;;;;;;5071084;28;20142;-82
2023/04/02 11:02:30;;;;;;;3.72;1.23;;;;;;;;;;5056891;28;20489;-82
2023/04/02 11:04:58;;;;;;;3.85;1.00;;;;;;;;;;5058843;28;20052;-82
2023/04/02 11:07:25;;;;;;;3.35;1.17;;;;;;;;;;5070046;28;20035;-82
2023/04/02 11:09:54;;;;;;;4.80;1.20;;;;;;;;;;5054694;28;20554;-82
2023/04/02 11:12:33;;;;;;;4.93;1.40;;;;;;;;;;5070578;28;20043;-82
2023/04/02 11:15:00;;;;;;;3.50;1.10;;;;;;;;;;5072705;28;20523;-81
2023/04/02 11:17:26;;;;;;;3.67;1.20;;;;;;;;;;5072123;28;20037;-82
2023/04/02 11:19:52;;;;;;;3.97;1.13;;;;;;;;;;5070800;28;20047;-82
2023/04/02 11:22:25;;;;;;;4.55;1.20;;;;;;;;;;5070884;28;20052;-82
2023/04/02 11:24:52;;;;;;;2.35;0.90;;;;;;;;;;5070934;28;20051;-82
2023/04/02 11:27:22;;;;;;;2.85;1.00;;;;;;;;;;5070549;28;20045;-82
2023/04/02 11:29:50;;;;;;;2.75;1.10;;;;;;;;;;5075387;28;20044;-83
2023/04/02 11:32:23;;;;;;;3.47;1.15;;;;;;;;;;5077576;28;20037;-84
2023/04/02 11:34:50;;;;;;;4.72;1.08;;;;;;;;;;5044403;28;20052;-83
2023/04/02 11:37:29;;;;;;;4.63;1.20;;;;;;;;;;5063097;28;20045;-84
2023/04/02 11:39:58;;;;;;;3.65;1.10;;;;;;;;;;5044433;28;20532;-83
2023/04/02 11:42:28;;;;;;;3.80;1.00;;;;;;;;;;5057281;28;20049;-84
2023/04/02 11:44:55;;;;;;;3.60;1.25;;;;;;;;;;5040691;28;20079;-84
2023/04/02 11:47:25;;;;;;;4.38;1.15;;;;;;;;;;5056996;28;20040;-83
2023/04/02 11:49:55;;;;;;;3.60;1.15;;;;;;;;;;5057003;28;20029;-84
2023/04/02 11:52:26;;;;;;;4.07;1.00;;;;;;;;;;5057092;28;20037;-83
2023/04/02 11:55:00;;;;;;;4.05;1.02;;;;;;;;;;5040708;28;20040;-83
2023/04/02 11:57:45;;;;;;;3.50;1.00;;;;;;;;;;5057485;28;20049;-82
2023/04/02 12:00:18;;;;;;;2.72;0.90;;;;;;;;;;5057171;28;20505;-83
2023/04/02 12:03:03;;;;;;;2.72;0.90;;;;;;;;;;5055189;28;20118;-83
2023/04/02 12:05:36;;;;;;;3.95;1.10;;;;;;;;;;5060161;28;20044;-83
2023/04/02 12:08:24;;;;;;;3.45;1.05;;;;;;;;;;5060740;28;20056;-83
2023/04/02 12:11:08;;;;;;;3.85;0.98;;;;;;;;;;5063163;28;20036;-83
2023/04/02 12:13:40;;;;;;;2.83;1.00;;;;;;;;;;5076857;28;20040;-83
2023/04/02 12:16:12;;;;;;;3.85;1.00;;;;;;;;;;5027630;28;20433;-82
2023/04/02 12:18:47;;;;;;;2.92;1.00;;;;;;;;;;5070377;28;20102;-82
2023/04/02 12:21:16;;;;;;;3.38;0.90;;;;;;;;;;5051906;28;20042;-82
2023/04/02 12:23:45;;;;;;;3.30;1.00;;;;;;;;;;5078142;28;20041;-83
2023/04/02 12:26:26;;;;;;;5.40;1.17;;;;;;;;;;5060536;28;20366;-83
2023/04/02 12:28:52;;;;;;;4.38;1.00;;;;;;;;;;5076963;28;20041;-83
2023/04/02 12:31:19;;;;;;;5.93;1.30;;;;;;;;;;5076695;28;20082;-83
2023/04/02 12:33:46;;;;;;;4.28;1.00;;;;;;;;;;5059932;28;20161;-83
2023/04/02 12:36:15;;;;;;;2.58;0.90;;;;;;;;;;5078122;28;20037;-83
2023/04/02 12:38:44;;;;;;;4.07;0.98;;;;;;;;;;5076439;28;20048;-82
2023/04/02 12:41:36;;;;;;;4.22;0.98;;;;;;;;;;5074414;28;20040;-83
2023/04/02 12:44:14;;;;;;;2.92;0.80;;;;;;;;;;5071947;28;20052;-83
2023/04/02 12:46:40;;;;;;;3.85;1.10;;;;;;;;;;5073718;28;20052;-82
2023/04/02 12:49:06;;;;;;;3.30;0.90;;;;;;;;;;5073774;28;20041;-82
2023/04/02 12:51:34;;;;;;;4.30;1.00;;;;;;;;;;5056833;28;20032;-83
2023/04/02 12:54:00;;;;;;;3.45;0.90;;;;;;;;;;5057224;28;20044;-83
2023/04/02 12:56:27;;;;;;;3.95;0.98;;;;;;;;;;5073624;28;20047;-82
2023/04/02 12:58:57;;;;;;;2.88;0.80;;;;;;;;;;5074004;28;20090;-83
2023/04/02 13:01:26;;;;;;;3.10;0.90;;;;;;;;;;5064551;28;20047;-83
2023/04/02 13:04:20;;;;;;;2.45;0.77;;;;;;;;;;5071707;28;20040;-82
2023/04/02 13:06:51;;;;;;;5.57;0.93;;;;;;;;;;5071972;28;20056;-83
2023/04/02 13:09:26;;;;;;;2.78;0.82;;;;;;;;;;5073877;28;20036;-83
2023/04/02 13:11:52;;;;;;;2.38;0.88;;;;;;;;;;5073164;28;20036;-83
2023/04/02 13:14:20;;;;;;;3.00;0.95;;;;;;;;;;5074708;28;20505;-83
2023/04/02 13:16:46;;;;;;;3.35;0.90;;;;;;;;;;5074481;28;20048;-82
2023/04/02 13:19:23;;;;;;;2.58;0.90;;;;;;;;;;5073452;28;20119;-82
2023/04/02 13:21:51;;;;;;;4.25;0.95;;;;;;;;;;5073033;28;20842;-82
2023/04/02 13:24:18;;;;;;;3.80;0.90;;;;;;;;;;5073328;28;20048;-82
2023/04/02 13:26:46;;;;;;;4.07;1.25;;;;;;;;;;5073231;28;20044;-82
2023/04/02 13:29:31;;;;;;;3.47;0.80;;;;;;;;;;5074921;28;20405;-82
2023/04/02 13:31:59;;;;;;;3.83;1.00;;;;;;;;;;5074903;28;20064;-82
2023/04/02 13:34:25;;;;;;;2.78;0.73;;;;;;;;;;5073129;28;20033;-82
2023/04/02 13:36:52;;;;;;;2.45;0.80;;;;;;;;;;5056161;28;20097;-82
2023/04/02 13:39:19;;;;;;;5.28;1.00;;;;;;;;;;5073229;28;20497;-83
2023/04/02 13:42:07;;;;;;;2.63;0.80;;;;;;;;;;5072687;28;20050;-82
2023/04/02 13:44:35;;;;;;;2.20;0.88;;;;;;;;;;5073592;28;20040;-82
2023/04/02 13:47:01;;;;;;;4.00;1.00;;;;;;;;;;5073093;28;20049;-83
2023/04/02 13:49:28;;;;;;;4.30;0.60;;;;;;;;;;5056351;28;20045;-83
2023/04/02 13:51:57;;;;;;;2.08;0.73;;;;;;;;;;5071606;28;20072;-82
2023/04/02 13:54:30;;;;;;;2.80;0.90;;;;;;;;;;5072382;28;20040;-83
2023/04/02 13:56:56;;;;;;;3.80;0.90;;;;;;;;;;5046751;28;20048;-82
2023/04/02 13:59:23;;;;;;;3.63;1.02;;;;;;;;;;5073044;28;20044;-82
2023/04/02 14:01:51;;;;;;;2.30;0.80;;;;;;;;;;5058325;28;20049;-82
2023/04/02 14:04:19;;;;;;;3.95;1.00;;;;;;;;;;5072943;28;20048;-82
2023/04/02 14:06:58;;;;;;;4.15;0.90;;;;;;;;;;5072027;28;20044;-82
2023/04/02 14:09:33;;;;;;;2.63;0.82;;;;;;;;;;5048853;28;20094;-82
2023/04/02 14:12:11;;;;;;;3.83;0.87;;;;;;;;;;5028660;28;20095;-82
2023/04/02 14:14:44;;;;;;;3.75;1.10;;;;;;;;;;5052881;28;20098;-82
2023/04/02 14:17:13;;;;;;;2.90;0.80;;;;;;;;;;5053695;28;20044;-82
2023/04/02 14:19:54;;;;;;;3.60;1.52;;;;;;;;;;5051956;28;20080;-82
2023/04/02 14:22:23;;;;;;;3.95;0.98;;;;;;;;;;5053187;28;20488;-83
2023/04/02 14:25:00;;;;;;;2.53;0.95;;;;;;;;;;5052067;28;20037;-82
2023/04/02 14:27:35;;;;;;;3.72;1.00;;;;;;;;;;5051915;28;20118;-82
2023/04/02 14:30:04;;;;;;;3.22;0.80;;;;;;;;;;5051811;28;20520;-83
2023/04/02 14:32:41;;;;;;;2.83;0.90;;;;;;;;;;5051333;28;20402;-82
2023/04/02 14:35:13;;;;;;;3.95;1.15;;;;;;;;;;5052294;28;20498;-82
2023/04/02 14:37:45;;;;;;;2.97;0.90;;;;;;;;;;5051139;28;20045;-82
2023/04/02 14:40:31;;;;;;;3.25;1.02;;;;;;;;;;5034892;28;20041;-82
2023/04/02 14:43:00;;;;;;;3.08;1.23;;;;;;;;;;5051483;28;20402;-82
2023/04/02 14:45:26;;;;;;;3.80;1.10;;;;;;;;;;5051730;28;20052;-82
2023/04/02 14:47:57;;;;;;;3.08;1.00;;;;;;;;;;5052269;28;20105;-82
2023/04/02 14:50:28;;;;;;;2.97;1.08;;;;;;;;;;5052652;28;20052;-82
2023/04/02 14:52:57;;;;;;;2.60;0.90;;;;;;;;;;5034242;28;20076;-82
2023/04/02 14:55:23;;;;;;;4.28;0.90;;;;;;;;;;5034933;28;20517;-82
2023/04/02 14:57:52;;;;;;;2.75;0.80;;;;;;;;;;5052291;28;20116;-81
2023/04/02 15:00:22;;;;;;;4.45;0.90;;;;;;;;;;5051044;28;20041;-83
2023/04/02 15:02:51;;;;;;;5.68;1.00;;;;;;;;;;5060115;28;20053;-82
2023/04/02 15:05:24;;;;;;;2.38;1.08;;;;;;;;;;5072033;28;20071;-82
2023/04/02 15:07:57;;;;;;;5.35;1.30;;;;;;;;;;5071987;28;20102;-81